Time;durP1;ratioP1;P1;durP2;ratioP2;P2;SDS_P1;SDS_P2;PMS_P1;PMS_P2;Temp;Humidity;BMP_temperature;BMP_pressure;BME280_temperature;BME280_humidity;BME280_pressure;Samples;Min_cycle;Max_cycle;Signal;HPM_P1;HPM_P2
2022/08/25 00:01:29;;;;;;;4.25;3.10;;;26.80;60.60;;;;;;6098209;23;20295;-67
2022/08/25 00:03:57;;;;;;;6.63;3.83;;;26.80;60.70;;;;;;6098097;23;20006;-67
2022/08/25 00:06:23;;;;;;;3.65;3.35;;;26.80;60.60;;;;;;6098337;23;19998;-66
2022/08/25 00:08:50;;;;;;;4.80;3.30;;;26.80;60.60;;;;;;6098251;23;20007;-67
2022/08/25 00:11:21;;;;;;;5.28;3.10;;;26.80;60.50;;;;;;6098362;23;20006;-67
2022/08/25 00:13:50;;;;;;;5.00;3.00;;;26.80;60.70;;;;;;6098411;23;20002;-67
2022/08/25 00:16:18;;;;;;;4.57;3.45;;;26.80;60.60;;;;;;6098355;23;20014;-67
2022/08/25 00:18:47;;;;;;;3.97;3.58;;;26.80;60.60;;;;;;6098363;23;20440;-67
2022/08/25 00:21:14;;;;;;;6.22;3.50;;;26.80;60.70;;;;;;6097903;23;19999;-67
2022/08/25 00:23:41;;;;;;;3.65;3.28;;;26.80;60.70;;;;;;6098242;23;20077;-67
2022/08/25 00:26:08;;;;;;;5.30;3.30;;;26.80;60.70;;;;;;6097983;23;20002;-67
2022/08/25 00:28:35;;;;;;;4.18;3.13;;;26.80;60.90;;;;;;6098423;23;20073;-67
2022/08/25 00:31:02;;;;;;;5.60;3.63;;;26.90;61.00;;;;;;6098246;23;20377;-67
2022/08/25 00:33:29;;;;;;;7.75;3.45;;;26.90;61.10;;;;;;6097870;23;20330;-67
2022/08/25 00:35:55;;;;;;;5.60;3.33;;;26.90;61.10;;;;;;6098283;23;20013;-67
2022/08/25 00:38:21;;;;;;;5.60;3.67;;;26.90;61.20;;;;;;6097751;23;20030;-67
2022/08/25 00:41:04;;;;;;;4.30;3.50;;;26.90;61.20;;;;;;6097898;23;20006;-67
2022/08/25 00:43:40;;;;;;;4.53;3.50;;;26.80;61.20;;;;;;6097824;23;19998;-67
2022/08/25 00:46:07;;;;;;;9.13;3.92;;;26.90;61.20;;;;;;6097153;23;20021;-67
2022/08/25 00:48:33;;;;;;;7.15;3.60;;;26.80;61.00;;;;;;6097863;23;20010;-67
2022/08/25 00:51:01;;;;;;;4.63;3.75;;;26.80;61.00;;;;;;6097750;23;20090;-67
2022/08/25 00:53:28;;;;;;;4.63;3.50;;;26.80;61.10;;;;;;6097612;23;20418;-67
2022/08/25 00:55:54;;;;;;;4.22;3.42;;;26.80;61.00;;;;;;6097520;23;20006;-67
2022/08/25 00:58:26;;;;;;;5.93;3.50;;;26.80;61.10;;;;;;6097523;23;20089;-67
2022/08/25 01:00:54;;;;;;;7.93;3.65;;;26.80;61.40;;;;;;6097799;23;20034;-67
2022/08/25 01:03:22;;;;;;;4.70;3.35;;;26.80;61.50;;;;;;6097788;23;20374;-67
2022/08/25 01:05:48;;;;;;;5.22;3.40;;;26.80;61.50;;;;;;6097542;23;20008;-67
2022/08/25 01:08:19;;;;;;;5.88;3.65;;;26.70;61.40;;;;;;6098087;23;20140;-67
2022/08/25 01:10:47;;;;;;;8.23;3.53;;;26.70;61.30;;;;;;6097792;23;20021;-67
2022/08/25 01:13:18;;;;;;;6.03;3.80;;;26.70;61.50;;;;;;6097752;23;20005;-67
2022/08/25 01:15:46;;;;;;;9.68;3.50;;;26.70;61.60;;;;;;6097508;23;20138;-67
2022/08/25 01:18:12;;;;;;;5.20;3.17;;;26.70;61.50;;;;;;6097708;23;20030;-67
2022/08/25 01:20:38;;;;;;;4.82;3.50;;;26.70;61.50;;;;;;6097316;23;20010;-67
2022/08/25 01:23:04;;;;;;;4.50;3.88;;;26.60;61.60;;;;;;6097488;23;20030;-67
2022/08/25 01:25:51;;;;;;;5.25;3.40;;;26.60;61.70;;;;;;6097474;23;20041;-67
2022/08/25 01:28:18;;;;;;;5.82;3.58;;;26.60;61.70;;;;;;6097662;23;20029;-67
2022/08/25 01:30:44;;;;;;;4.72;3.75;;;26.60;61.80;;;;;;6097574;23;20401;-67
2022/08/25 01:33:11;;;;;;;6.55;3.75;;;26.60;61.90;;;;;;6097154;23;20002;-67
2022/08/25 01:35:38;;;;;;;9.05;3.90;;;26.60;61.80;;;;;;6097442;23;20474;-67
2022/08/25 01:38:05;;;;;;;7.30;3.67;;;26.60;61.90;;;;;;6097546;23;20337;-67
2022/08/25 01:40:31;;;;;;;7.18;4.32;;;26.60;61.90;;;;;;6097363;23;20100;-67
2022/08/25 01:43:10;;;;;;;4.70;3.20;;;26.50;61.80;;;;;;6097178;23;20002;-67
2022/08/25 01:45:37;;;;;;;5.10;3.80;;;26.50;61.90;;;;;;6097179;23;20322;-67
2022/08/25 01:48:05;;;;;;;5.70;3.25;;;26.50;62.40;;;;;;6097382;23;20006;-67
2022/08/25 01:50:32;;;;;;;6.65;3.88;;;26.40;62.70;;;;;;6097867;23;20002;-67
2022/08/25 01:53:01;;;;;;;6.60;3.72;;;26.30;62.90;;;;;;6097236;23;20005;-67
2022/08/25 01:55:28;;;;;;;7.75;3.50;;;26.30;63.20;;;;;;6097190;23;20022;-67
2022/08/25 01:57:54;;;;;;;5.80;3.60;;;26.30;63.70;;;;;;6096776;23;20422;-67
2022/08/25 02:00:21;;;;;;;4.47;3.63;;;26.30;63.90;;;;;;6097008;23;20018;-67
2022/08/25 02:02:47;;;;;;;4.72;4.00;;;26.30;63.70;;;;;;6097022;23;20081;-67
2022/08/25 02:05:15;;;;;;;4.30;3.70;;;26.30;63.90;;;;;;6097250;23;20460;-67
2022/08/25 02:07:41;;;;;;;4.18;3.45;;;26.20;63.70;;;;;;6097058;23;19999;-67
2022/08/25 02:10:09;;;;;;;4.80;3.28;;;26.20;63.70;;;;;;6097374;23;20030;-67
2022/08/25 02:12:35;;;;;;;4.40;3.45;;;26.20;63.70;;;;;;6097281;23;20002;-67
2022/08/25 02:15:03;;;;;;;5.18;3.53;;;26.20;63.90;;;;;;6097163;23;20426;-67
2022/08/25 02:17:29;;;;;;;6.93;3.60;;;26.20;64.20;;;;;;6097426;23;20334;-67
2022/08/25 02:19:55;;;;;;;6.00;4.07;;;26.10;64.40;;;;;;6096923;23;20015;-67
2022/08/25 02:22:22;;;;;;;5.45;3.83;;;26.10;64.50;;;;;;6096980;23;20017;-67
2022/08/25 02:24:48;;;;;;;7.57;3.80;;;26.10;64.20;;;;;;6097055;23;20041;-67
2022/08/25 02:27:13;;;;;;;4.50;3.80;;;26.10;64.30;;;;;;6097122;23;19998;-67
2022/08/25 02:29:39;;;;;;;5.15;4.28;;;26.10;64.10;;;;;;6096783;23;20081;-67
2022/08/25 02:32:05;;;;;;;5.65;4.07;;;26.10;64.00;;;;;;6097240;23;20436;-67
2022/08/25 02:34:31;;;;;;;7.57;4.18;;;26.10;63.90;;;;;;6097048;23;20493;-67
2022/08/25 02:36:57;;;;;;;6.00;4.25;;;26.10;63.90;;;;;;6096785;23;19998;-67
2022/08/25 02:39:22;;;;;;;4.63;3.83;;;26.10;64.20;;;;;;6096835;23;20093;-67
2022/08/25 02:41:49;;;;;;;5.20;3.67;;;26.00;64.00;;;;;;6096862;23;20005;-67
2022/08/25 02:44:14;;;;;;;6.72;3.70;;;26.00;64.00;;;;;;6097285;23;20021;-67
2022/08/25 02:46:40;;;;;;;7.95;4.10;;;26.00;64.10;;;;;;6097167;23;20081;-67
2022/08/25 02:49:06;;;;;;;5.82;4.45;;;25.90;64.00;;;;;;6097084;23;20017;-67
2022/08/25 02:51:33;;;;;;;5.32;3.95;;;25.90;64.20;;;;;;6097241;23;20010;-67
2022/08/25 02:54:01;;;;;;;5.97;4.32;;;25.90;64.00;;;;;;6096928;23;20006;-68
2022/08/25 02:56:28;;;;;;;6.13;3.95;;;25.90;63.70;;;;;;6096935;23;20010;-67
2022/08/25 02:58:54;;;;;;;5.97;4.20;;;25.90;64.10;;;;;;6096602;23;20026;-67
2022/08/25 03:01:21;;;;;;;7.47;4.55;;;25.90;64.20;;;;;;6096767;23;20517;-67
2022/08/25 03:03:48;;;;;;;6.85;4.38;;;25.90;64.10;;;;;;6096666;23;20007;-67
2022/08/25 03:06:17;;;;;;;6.32;4.40;;;25.90;64.00;;;;;;6096768;23;20002;-67
2022/08/25 03:08:43;;;;;;;8.07;3.60;;;25.90;64.20;;;;;;6096885;23;20082;-67
2022/08/25 03:11:10;;;;;;;5.30;4.05;;;25.80;64.20;;;;;;6098713;23;20006;-67
2022/08/25 03:13:36;;;;;;;4.50;3.97;;;25.80;64.30;;;;;;6098847;23;20433;-67
2022/08/25 03:16:04;;;;;;;8.43;4.30;;;25.80;64.40;;;;;;6098570;23;20330;-67
2022/08/25 03:18:30;;;;;;;6.97;4.57;;;25.80;64.70;;;;;;6098971;23;19999;-67
2022/08/25 03:20:56;;;;;;;7.68;3.60;;;25.80;65.40;;;;;;6098625;23;20077;-67
2022/08/25 03:23:22;;;;;;;9.15;4.43;;;25.70;65.40;;;;;;6098777;23;20009;-67
2022/08/25 03:28:32;;;;;;;5.45;4.43;;;25.70;65.30;;;;;;6098981;23;20009;-67
2022/08/25 03:31:01;;;;;;;9.55;4.28;;;25.70;65.10;;;;;;6098447;23;20010;-67
2022/08/25 03:33:28;;;;;;;7.25;4.65;;;25.70;65.10;;;;;;6098517;23;20003;-67
2022/08/25 03:35:54;;;;;;;7.80;4.47;;;25.70;64.90;;;;;;6098660;23;20074;-67
2022/08/25 03:38:21;;;;;;;6.07;4.22;;;25.60;64.90;;;;;;6098396;23;20037;-67
2022/08/25 03:40:47;;;;;;;5.47;4.25;;;25.60;65.00;;;;;;6098390;23;20023;-67
2022/08/25 03:43:13;;;;;;;5.05;4.28;;;25.60;65.10;;;;;;6072636;23;20011;-67
2022/08/25 03:45:41;;;;;;;8.13;4.25;;;25.60;65.10;;;;;;6098447;23;20046;-67
2022/08/25 03:48:07;;;;;;;10.02;4.60;;;25.60;65.10;;;;;;6098521;23;19999;-67
2022/08/25 03:50:34;;;;;;;7.75;4.88;;;25.60;65.00;;;;;;6098367;23;20434;-67
2022/08/25 03:53:00;;;;;;;6.60;4.30;;;25.60;65.00;;;;;;6098322;23;20058;-67
2022/08/25 03:55:26;;;;;;;7.60;4.45;;;25.60;65.00;;;;;;6098303;23;20011;-67
2022/08/25 03:57:53;;;;;;;7.03;4.50;;;25.50;65.10;;;;;;6098305;23;20006;-67
2022/08/25 04:00:20;;;;;;;7.50;4.38;;;25.50;65.50;;;;;;6069478;23;20438;-66
2022/08/25 04:02:46;;;;;;;5.53;4.65;;;25.50;65.40;;;;;;6069447;23;20003;-66
2022/08/25 04:05:12;;;;;;;7.45;4.50;;;25.50;65.30;;;;;;6069281;23;20326;-66
2022/08/25 04:07:39;;;;;;;5.90;4.07;;;25.50;65.30;;;;;;6069172;23;20003;-67
2022/08/25 04:10:06;;;;;;;6.15;4.63;;;25.50;65.10;;;;;;6069433;23;20327;-66
2022/08/25 04:12:33;;;;;;;7.63;4.65;;;25.50;65.10;;;;;;6069369;23;20094;-67
2022/08/25 04:14:58;;;;;;;5.70;4.30;;;25.50;65.20;;;;;;6069596;23;20383;-67
2022/08/25 04:17:24;;;;;;;5.85;4.45;;;25.50;65.10;;;;;;6069282;23;20013;-67
2022/08/25 04:19:50;;;;;;;8.25;4.47;;;25.40;65.20;;;;;;6069306;23;20018;-67
2022/08/25 04:22:16;;;;;;;6.45;4.50;;;25.40;65.30;;;;;;6069554;23;20031;-67
2022/08/25 04:24:42;;;;;;;6.45;4.95;;;25.40;65.30;;;;;;6069772;23;20138;-67
2022/08/25 04:27:08;;;;;;;8.43;4.22;;;25.40;65.30;;;;;;6069358;23;20026;-67
2022/08/25 04:29:34;;;;;;;6.68;4.30;;;25.40;65.20;;;;;;6069547;23;20011;-66
2022/08/25 04:31:59;;;;;;;9.52;4.47;;;25.40;65.40;;;;;;6069566;23;20078;-67
2022/08/25 04:34:26;;;;;;;6.47;4.20;;;25.40;65.30;;;;;;6069320;23;20003;-67
2022/08/25 04:36:52;;;;;;;5.30;4.60;;;25.40;65.40;;;;;;6068997;23;20005;-67
2022/08/25 04:39:19;;;;;;;5.22;4.07;;;25.40;65.40;;;;;;6068815;23;20082;-66
2022/08/25 04:41:49;;;;;;;6.03;4.65;;;25.40;65.40;;;;;;6069168;23;19999;-67
2022/08/25 04:44:16;;;;;;;5.53;4.35;;;25.40;65.30;;;;;;6068936;23;20007;-66
2022/08/25 04:46:42;;;;;;;8.30;4.72;;;25.30;65.50;;;;;;6069210;23;20006;-67
2022/08/25 04:49:08;;;;;;;4.78;3.80;;;25.30;65.60;;;;;;6069077;23;20006;-67
2022/08/25 04:51:38;;;;;;;8.68;4.55;;;25.40;65.60;;;;;;6068902;23;20007;-66
2022/08/25 04:54:08;;;;;;;8.68;4.53;;;25.30;65.60;;;;;;6069414;23;20038;-67
2022/08/25 04:56:34;;;;;;;9.82;4.43;;;25.30;65.60;;;;;;6068836;23;20526;-67
2022/08/25 04:59:06;;;;;;;6.80;4.22;;;25.30;65.70;;;;;;6082166;23;20450;-66
2022/08/25 05:01:33;;;;;;;6.45;4.18;;;25.30;65.70;;;;;;6097855;23;20002;-66
2022/08/25 05:04:01;;;;;;;5.53;4.30;;;25.30;65.90;;;;;;6097435;23;20009;-66
2022/08/25 05:06:28;;;;;;;7.30;4.53;;;25.30;65.90;;;;;;6097982;23;20053;-66
2022/08/25 05:08:54;;;;;;;6.28;4.32;;;25.30;66.00;;;;;;6097728;23;20007;-66
2022/08/25 05:11:21;;;;;;;9.90;4.38;;;25.30;66.20;;;;;;6097936;23;20030;-66
2022/08/25 05:13:48;;;;;;;5.75;4.15;;;25.30;66.40;;;;;;6097519;23;20010;-66
2022/08/25 05:16:15;;;;;;;7.35;4.10;;;25.20;66.60;;;;;;6097658;23;20006;-66
2022/08/25 05:18:41;;;;;;;8.40;4.70;;;25.20;66.70;;;;;;6097483;23;20306;-66
2022/08/25 05:21:11;;;;;;;7.50;4.43;;;25.20;66.70;;;;;;6097827;23;20006;-66
2022/08/25 05:23:37;;;;;;;6.78;4.50;;;25.20;66.90;;;;;;6097770;23;20014;-66
2022/08/25 05:26:09;;;;;;;8.10;5.05;;;25.20;66.80;;;;;;6097475;23;20329;-66
2022/08/25 05:28:37;;;;;;;12.98;5.10;;;25.20;66.70;;;;;;6097216;23;20049;-66
2022/08/25 05:31:03;;;;;;;5.95;4.47;;;25.20;66.70;;;;;;6097097;23;20037;-67
2022/08/25 05:33:30;;;;;;;9.25;4.68;;;25.20;66.80;;;;;;6097062;23;20003;-66
2022/08/25 05:35:56;;;;;;;10.27;4.57;;;25.20;67.00;;;;;;6097504;23;20050;-66
2022/08/25 05:38:22;;;;;;;6.15;4.65;;;25.20;67.00;;;;;;6097279;23;20074;-67
2022/08/25 05:40:58;;;;;;;11.52;4.68;;;25.20;66.80;;;;;;6097238;23;20010;-66
2022/08/25 05:43:23;;;;;;;7.18;4.95;;;25.20;66.80;;;;;;6097020;23;20045;-67
2022/08/25 05:45:52;;;;;;;9.95;5.03;;;25.20;66.90;;;;;;6097555;23;20010;-66
2022/08/25 05:48:18;;;;;;;6.93;4.63;;;25.20;66.90;;;;;;6097231;23;19999;-66
2022/08/25 05:50:51;;;;;;;9.68;4.60;;;25.20;66.90;;;;;;6097613;23;20062;-66
2022/08/25 05:53:16;;;;;;;6.75;4.70;;;25.20;67.10;;;;;;6097394;23;20018;-66
2022/08/25 05:55:44;;;;;;;7.88;4.55;;;25.20;67.30;;;;;;6097367;23;20012;-66
2022/08/25 05:58:10;;;;;;;7.18;4.43;;;25.20;67.20;;;;;;6096762;23;19998;-66
2022/08/25 06:00:37;;;;;;;12.20;4.53;;;25.20;66.80;;;;;;6096999;23;20015;-66
2022/08/25 06:03:02;;;;;;;8.88;4.13;;;25.20;66.60;;;;;;6097146;23;20373;-66
2022/08/25 06:05:28;;;;;;;12.82;4.70;;;25.20;66.60;;;;;;6097091;23;20017;-67
2022/08/25 06:07:54;;;;;;;8.63;3.80;;;25.20;66.50;;;;;;6097115;23;20013;-67
2022/08/25 06:10:20;;;;;;;9.80;4.22;;;25.20;66.40;;;;;;6097307;23;20012;-66
2022/08/25 06:12:47;;;;;;;10.57;4.43;;;25.20;66.50;;;;;;6096857;23;20491;-66
2022/08/25 06:15:16;;;;;;;7.00;4.32;;;25.20;66.70;;;;;;6097376;23;20007;-66
2022/08/25 06:17:42;;;;;;;8.63;3.85;;;25.20;66.70;;;;;;6097113;23;20006;-66
2022/08/25 06:20:10;;;;;;;11.40;4.38;;;25.20;66.40;;;;;;6097449;23;20077;-66
2022/08/25 06:22:36;;;;;;;10.90;4.65;;;25.20;66.40;;;;;;6097278;23;20014;-66
2022/08/25 06:25:03;;;;;;;8.20;4.25;;;25.20;66.40;;;;;;6096976;23;20007;-67
2022/08/25 06:27:29;;;;;;;13.88;4.43;;;25.30;66.40;;;;;;6096972;23;19999;-66
2022/08/25 06:29:55;;;;;;;8.57;4.55;;;25.30;66.40;;;;;;6096980;23;20054;-66
2022/08/25 06:32:20;;;;;;;8.30;4.03;;;25.30;66.50;;;;;;6097034;23;20006;-66
2022/08/25 06:34:46;;;;;;;6.03;4.47;;;25.30;66.40;;;;;;6097310;23;20014;-66
2022/08/25 06:37:12;;;;;;;6.35;4.18;;;25.30;66.30;;;;;;6096713;23;20437;-67
2022/08/25 06:39:38;;;;;;;5.85;4.05;;;25.30;66.20;;;;;;6096893;23;20014;-67
2022/08/25 06:42:04;;;;;;;6.90;4.38;;;25.30;66.20;;;;;;6096844;23;20009;-66
2022/08/25 06:44:30;;;;;;;5.93;3.95;;;25.30;66.20;;;;;;6097567;23;20029;-66
2022/08/25 06:46:56;;;;;;;7.18;4.03;;;25.40;66.30;;;;;;6098739;23;20527;-66
2022/08/25 06:49:22;;;;;;;10.65;4.63;;;25.30;66.20;;;;;;6099307;23;20040;-66
2022/08/25 06:51:49;;;;;;;13.60;4.40;;;25.40;66.30;;;;;;6098713;23;20418;-66
2022/08/25 06:54:15;;;;;;;10.68;4.28;;;25.40;66.20;;;;;;6098985;23;20007;-66
2022/08/25 06:56:41;;;;;;;6.55;3.88;;;25.40;66.30;;;;;;6099047;23;20077;-66
2022/08/25 06:59:08;;;;;;;5.97;4.03;;;25.30;66.40;;;;;;6098639;23;20468;-66
2022/08/25 07:01:34;;;;;;;6.32;4.70;;;25.30;66.40;;;;;;6098904;23;20033;-66
2022/08/25 07:04:03;;;;;;;9.50;3.90;;;25.40;66.70;;;;;;6098974;23;20061;-66
2022/08/25 07:06:31;;;;;;;7.25;4.60;;;25.40;66.60;;;;;;6098886;23;20073;-66
2022/08/25 07:08:58;;;;;;;6.53;3.83;;;25.30;66.20;;;;;;6098573;23;19998;-66
2022/08/25 07:11:24;;;;;;;10.88;4.30;;;25.40;66.10;;;;;;6098838;23;20011;-66
2022/08/25 07:13:50;;;;;;;8.25;4.25;;;25.40;66.00;;;;;;6099009;23;20017;-67
2022/08/25 07:16:19;;;;;;;10.70;4.43;;;25.40;66.00;;;;;;6099151;23;20010;-66
2022/08/25 07:18:45;;;;;;;5.88;4.47;;;25.40;66.00;;;;;;6099056;23;20006;-67
2022/08/25 07:21:12;;;;;;;7.43;4.72;;;25.50;65.90;;;;;;6098805;23;20021;-66
2022/08/25 07:23:39;;;;;;;8.88;4.57;;;25.50;65.90;;;;;;6098422;23;20111;-66
2022/08/25 07:26:13;;;;;;;10.27;4.30;;;25.60;66.00;;;;;;6098873;23;20015;-66
2022/08/25 07:28:40;;;;;;;7.03;4.05;;;25.60;66.10;;;;;;6098544;23;20013;-66
2022/08/25 07:31:06;;;;;;;9.13;4.57;;;25.60;66.10;;;;;;6098913;23;20015;-66
2022/08/25 07:33:31;;;;;;;11.48;4.60;;;25.70;66.20;;;;;;6098419;23;20432;-66
2022/08/25 07:35:57;;;;;;;12.85;4.97;;;25.80;66.10;;;;;;6098212;23;20006;-66
2022/08/25 07:38:23;;;;;;;6.53;3.95;;;25.80;65.90;;;;;;6098567;23;20006;-67
2022/08/25 07:40:53;;;;;;;9.00;3.90;;;25.80;65.90;;;;;;6098570;23;20021;-67
2022/08/25 07:46:41;;;;;;;7.57;4.27;;;26.00;66.10;;;;;;6098373;23;20014;-66
2022/08/25 07:49:07;;;;;;;8.65;4.53;;;26.10;65.90;;;;;;6098465;23;20227;-67
2022/08/25 07:51:33;;;;;;;7.18;3.70;;;26.10;65.90;;;;;;6098518;23;20018;-67
2022/08/25 07:53:59;;;;;;;14.32;4.25;;;26.20;65.90;;;;;;6098553;23;20054;-66
2022/08/25 07:56:25;;;;;;;7.88;4.65;;;26.20;65.90;;;;;;6098095;23;20006;-66
2022/08/25 07:58:51;;;;;;;6.40;4.25;;;26.30;66.00;;;;;;6097931;23;20069;-66
2022/08/25 08:01:19;;;;;;;6.10;4.00;;;26.40;65.80;;;;;;6098101;23;20011;-66
2022/08/25 08:03:45;;;;;;;5.53;4.90;;;26.50;65.30;;;;;;6098677;23;20009;-66
2022/08/25 08:06:14;;;;;;;13.88;4.88;;;26.70;65.20;;;;;;6098226;23;20007;-66
2022/08/25 08:08:44;;;;;;;5.95;4.50;;;26.80;64.80;;;;;;6098352;23;20457;-67
2022/08/25 08:11:18;;;;;;;10.30;5.10;;;26.90;64.20;;;;;;6098123;23;20007;-66
2022/08/25 08:13:44;;;;;;;10.05;4.45;;;27.00;63.70;;;;;;6098332;23;20002;-67
2022/08/25 08:16:11;;;;;;;7.22;4.47;;;27.10;63.40;;;;;;6098329;23;20017;-66
2022/08/25 08:19:08;;;;;;;10.25;4.78;;;27.20;62.90;;;;;;6098192;23;20002;-66
2022/08/25 08:21:35;;;;;;;7.32;4.32;;;27.30;62.80;;;;;;6098108;23;20334;-66
2022/08/25 08:24:02;;;;;;;9.85;4.30;;;27.30;62.40;;;;;;6097732;23;20042;-67
2022/08/25 08:26:28;;;;;;;8.98;4.72;;;27.40;62.00;;;;;;6097836;23;20073;-66
2022/08/25 08:28:54;;;;;;;9.82;4.20;;;27.60;61.80;;;;;;6098246;23;20037;-66
2022/08/25 08:31:22;;;;;;;5.45;4.43;;;27.60;61.20;;;;;;6098079;23;20014;-67
2022/08/25 08:33:50;;;;;;;7.45;4.25;;;27.70;60.50;;;;;;6097932;23;20492;-66
2022/08/25 08:36:17;;;;;;;7.53;4.32;;;27.70;60.10;;;;;;6098321;23;20073;-67
2022/08/25 08:38:44;;;;;;;5.63;4.53;;;27.80;60.00;;;;;;6098248;23;20011;-66
2022/08/25 08:44:35;;;;;;;5.72;4.25;;;28.00;59.60;;;;;;6097978;23;20402;-66
2022/08/25 08:47:09;;;;;;;8.73;4.00;;;28.10;59.40;;;;;;6097874;23;20006;-67
2022/08/25 08:49:46;;;;;;;8.65;4.53;;;28.10;59.60;;;;;;6098180;23;20008;-67
2022/08/25 08:55:47;;;;;;;5.53;3.92;;;28.30;58.50;;;;;;6097520;23;20029;-66
2022/08/25 08:58:24;;;;;;;12.95;5.10;;;28.40;57.50;;;;;;6097822;23;20022;-66
2022/08/25 09:00:54;;;;;;;9.93;4.05;;;28.50;57.30;;;;;;6097605;23;20345;-66
2022/08/25 09:03:49;;;;;;;8.10;3.85;;;28.50;57.20;;;;;;6097967;23;20010;-66
2022/08/25 09:06:24;;;;;;;9.18;4.18;;;28.60;57.00;;;;;;6097391;23;20014;-66
2022/08/25 09:08:54;;;;;;;12.52;4.13;;;28.70;57.70;;;;;;6097716;23;20012;-67
2022/08/25 09:12:10;;;;;;;9.27;4.22;;;28.80;56.30;;;;;;6097727;23;20022;-67
2022/08/25 09:15:05;;;;;;;7.13;4.18;;;28.90;56.20;;;;;;6009600;23;20012;-67
2022/08/25 09:17:45;;;;;;;8.63;3.90;;;29.00;56.20;;;;;;6006340;23;20035;-66
2022/08/25 09:20:29;;;;;;;7.47;3.78;;;29.10;54.60;;;;;;6075667;23;20026;-67
2022/08/25 09:23:00;;;;;;;9.90;3.83;;;29.10;54.40;;;;;;6097566;23;20006;-67
2022/08/25 09:25:34;;;;;;;10.52;3.80;;;29.10;54.80;;;;;;6097871;23;20013;-67
2022/08/25 09:28:12;;;;;;;6.95;3.67;;;29.20;53.50;;;;;;6097450;23;20014;-66
2022/08/25 09:30:52;;;;;;;10.15;4.38;;;29.20;53.70;;;;;;6097182;23;20046;-66
2022/08/25 09:33:22;;;;;;;9.53;4.13;;;29.30;54.60;;;;;;6097794;23;20010;-67
2022/08/25 09:35:50;;;;;;;8.00;3.85;;;29.40;54.50;;;;;;6097454;23;20045;-67
2022/08/25 09:38:18;;;;;;;8.57;4.50;;;29.40;54.30;;;;;;6097670;23;20006;-66
2022/08/25 09:40:50;;;;;;;10.48;3.78;;;29.60;53.30;;;;;;6097405;23;20018;-67
2022/08/25 09:43:21;;;;;;;12.65;4.60;;;29.60;52.10;;;;;;6097454;23;20002;-67
2022/08/25 09:45:56;;;;;;;12.23;4.20;;;29.70;52.30;;;;;;6097315;23;20307;-67
2022/08/25 09:48:25;;;;;;;8.23;3.72;;;29.80;52.20;;;;;;6072592;23;20322;-66
2022/08/25 09:50:56;;;;;;;12.88;4.15;;;29.80;52.30;;;;;;6097486;23;20013;-67
2022/08/25 09:53:23;;;;;;;8.40;4.35;;;29.90;51.90;;;;;;6097480;23;20089;-67
2022/08/25 09:55:57;;;;;;;11.70;4.03;;;29.90;51.80;;;;;;6097092;23;20115;-67
2022/08/25 09:58:24;;;;;;;7.75;3.40;;;30.00;51.50;;;;;;6097069;23;20018;-66
2022/08/25 10:04:11;;;;;;;6.82;4.00;;;30.10;51.00;;;;;;6097256;23;20017;-67
2022/08/25 10:06:46;;;;;;;13.68;4.25;;;30.20;51.10;;;;;;6097081;23;20345;-66
2022/08/25 10:09:28;;;;;;;7.90;3.80;;;30.30;51.40;;;;;;6097239;23;20330;-67
2022/08/25 10:11:55;;;;;;;9.88;4.13;;;30.40;50.70;;;;;;6096876;23;20006;-67
2022/08/25 10:14:37;;;;;;;22.83;4.40;;;30.40;50.00;;;;;;6097210;23;20434;-67
2022/08/25 10:17:12;;;;;;;12.57;4.15;;;30.50;50.00;;;;;;6097349;23;19999;-67
2022/08/25 10:19:38;;;;;;;12.30;4.10;;;30.50;49.90;;;;;;6096614;23;20025;-67
2022/08/25 10:22:06;;;;;;;9.63;3.80;;;30.60;49.90;;;;;;6096824;23;20002;-67
2022/08/25 10:24:32;;;;;;;10.50;4.68;;;30.70;49.80;;;;;;6097211;23;20010;-67
2022/08/25 10:27:18;;;;;;;11.10;4.18;;;30.80;49.10;;;;;;6097074;23;20009;-67
2022/08/25 10:29:52;;;;;;;12.82;4.35;;;30.90;49.30;;;;;;6096905;23;20342;-67
2022/08/25 10:32:39;;;;;;;10.63;4.28;;;30.90;48.70;;;;;;6096799;23;20072;-66
2022/08/25 10:38:38;;;;;;;11.35;3.92;;;31.10;48.80;;;;;;6097066;23;20033;-66
2022/08/25 10:41:40;;;;;;;11.75;4.10;;;31.10;48.20;;;;;;6096780;23;20020;-66
2022/08/25 10:47:49;;;;;;;13.70;4.07;;;31.20;48.10;;;;;;6097079;23;20066;-67
2022/08/25 10:50:52;;;;;;;11.43;4.38;;;31.30;47.70;;;;;;6096955;23;20002;-67
2022/08/25 10:53:42;;;;;;;7.75;3.75;;;31.30;47.40;;;;;;6051776;23;20010;-67
2022/08/25 10:56:14;;;;;;;13.73;4.00;;;31.40;47.70;;;;;;6097216;23;20033;-66
2022/08/25 10:59:00;;;;;;;13.98;4.32;;;31.40;47.40;;;;;;6096609;23;20019;-67
2022/08/25 11:01:46;;;;;;;9.98;4.53;;;31.40;47.00;;;;;;6097150;23;20089;-67
2022/08/25 11:05:05;;;;;;;8.60;4.15;;;31.40;46.60;;;;;;6096841;23;20417;-67
2022/08/25 11:07:43;;;;;;;9.60;4.00;;;31.40;46.50;;;;;;6092329;23;20018;-66
2022/08/25 11:10:40;;;;;;;10.15;3.70;;;31.30;47.50;;;;;;6096742;23;20433;-67
2022/08/25 11:13:12;;;;;;;10.50;3.75;;;31.30;47.10;;;;;;6097030;23;20003;-67
2022/08/25 11:15:48;;;;;;;9.48;3.80;;;31.40;46.90;;;;;;6097118;23;20006;-67
2022/08/25 11:18:14;;;;;;;12.57;3.72;;;31.50;47.20;;;;;;6097000;23;20065;-67
2022/08/25 11:21:00;;;;;;;24.13;4.35;;;31.60;47.20;;;;;;6097041;23;20127;-67
2022/08/25 11:23:52;;;;;;;14.15;3.95;;;31.70;46.40;;;;;;6096911;23;20048;-67
2022/08/25 11:26:28;;;;;;;9.23;3.20;;;31.80;46.50;;;;;;6096704;23;20007;-66
2022/08/25 11:29:00;;;;;;;8.82;3.47;;;31.90;46.20;;;;;;6096721;23;20430;-67
2022/08/25 11:31:26;;;;;;;9.93;3.55;;;32.10;46.20;;;;;;6097934;23;20002;-67
2022/08/25 11:33:54;;;;;;;8.10;3.53;;;32.20;45.80;;;;;;6098926;23;20441;-67
2022/08/25 11:36:22;;;;;;;8.75;3.50;;;32.20;45.70;;;;;;6098679;23;20003;-67
2022/08/25 11:39:14;;;;;;;11.95;4.07;;;32.30;44.90;;;;;;6098609;23;20009;-67
2022/08/25 11:41:51;;;;;;;10.18;3.63;;;32.30;44.50;;;;;;6098291;23;20513;-67
2022/08/25 11:44:32;;;;;;;8.75;3.30;;;32.40;44.80;;;;;;6098591;23;20002;-66
2022/08/25 11:47:23;;;;;;;11.97;3.80;;;32.40;45.00;;;;;;6098773;23;20315;-66
2022/08/25 11:50:02;;;;;;;7.05;3.47;;;32.40;44.50;;;;;;6098525;23;20024;-67
2022/08/25 11:52:30;;;;;;;6.07;3.17;;;32.50;44.50;;;;;;6098280;23;19998;-67
2022/08/25 11:55:10;;;;;;;7.65;3.15;;;32.50;44.10;;;;;;6098254;23;20003;-67
2022/08/25 11:57:37;;;;;;;10.43;3.50;;;32.60;44.40;;;;;;6098257;23;20010;-67
2022/08/25 12:03:33;;;;;;;9.68;3.45;;;32.70;43.30;;;;;;6098486;23;20017;-67
2022/08/25 12:06:28;;;;;;;7.60;3.00;;;32.60;43.10;;;;;;6098525;23;19999;-66
2022/08/25 12:09:00;;;;;;;11.27;3.47;;;32.60;43.40;;;;;;6098205;23;20438;-67
2022/08/25 12:11:37;;;;;;;;;;;32.80;43.60;;;;;;6098979;23;20073;-66
2022/08/25 12:14:15;;;;;;;8.35;3.30;;;32.80;43.20;;;;;;6098244;23;19925;-66
2022/08/25 12:17:03;;;;;;;4.95;3.03;;;32.90;43.00;;;;;;6098610;23;20034;-66
2022/08/25 12:19:35;;;;;;;9.10;3.17;;;32.90;42.90;;;;;;6081990;23;20026;-67
2022/08/25 12:22:00;;;;;;;7.18;2.90;;;32.80;43.10;;;;;;6098146;23;20437;-67
2022/08/25 12:24:41;;;;;;;8.65;3.30;;;32.90;42.40;;;;;;6098275;23;20068;-67
2022/08/25 12:27:22;;;;;;;6.27;3.00;;;32.80;42.80;;;;;;6098336;23;20381;-66
2022/08/25 12:29:56;;;;;;;11.27;2.97;;;32.80;43.20;;;;;;6098266;23;20085;-67
2022/08/25 12:32:37;;;;;;;6.45;3.08;;;32.80;43.50;;;;;;6098163;23;20009;-67
2022/08/25 12:35:31;;;;;;;5.15;3.30;;;32.90;43.70;;;;;;6098302;23;20444;-67
2022/08/25 12:38:03;;;;;;;11.40;3.28;;;33.00;43.70;;;;;;6098522;23;20016;-66
2022/08/25 12:40:37;;;;;;;8.00;3.00;;;33.10;43.40;;;;;;6097833;23;20449;-67
2022/08/25 12:43:11;;;;;;;7.72;3.05;;;33.10;42.60;;;;;;6097580;23;20011;-67
2022/08/25 12:45:43;;;;;;;6.72;3.40;;;33.00;42.30;;;;;;6097651;23;20014;-67
2022/08/25 12:48:27;;;;;;;8.25;2.88;;;33.00;42.80;;;;;;6097863;23;20008;-67
2022/08/25 12:51:09;;;;;;;8.82;3.53;;;32.90;43.50;;;;;;6072421;23;20373;-67
2022/08/25 12:53:45;;;;;;;10.48;4.20;;;32.90;44.40;;;;;;6097964;23;20037;-67
2022/08/25 12:56:26;;;;;;;7.78;3.67;;;32.80;44.50;;;;;;6097728;23;20011;-67
2022/08/25 12:59:16;;;;;;;11.05;3.50;;;32.60;44.60;;;;;;6097223;23;20029;-67
2022/08/25 13:01:57;;;;;;;9.50;3.47;;;32.50;45.00;;;;;;6097469;23;20119;-66
2022/08/25 13:04:34;;;;;;;9.07;3.47;;;32.30;45.50;;;;;;6098206;23;20350;-67
2022/08/25 13:07:15;;;;;;;6.57;3.00;;;32.20;45.80;;;;;;6097702;23;20007;-67
2022/08/25 13:10:23;;;;;;;10.70;3.47;;;32.10;46.40;;;;;;6097543;23;20009;-67
2022/08/25 13:13:36;;;;;;;8.13;3.35;;;31.90;46.20;;;;;;6097551;23;20090;-67
2022/08/25 13:16:08;;;;;;;8.75;3.58;;;31.80;47.00;;;;;;6089859;23;20433;-67
2022/08/25 13:18:37;;;;;;;7.22;3.45;;;31.60;48.70;;;;;;6097736;23;20002;-67
2022/08/25 13:21:14;;;;;;;8.80;3.30;;;31.50;49.40;;;;;;6097540;23;20010;-67
2022/08/25 13:23:42;;;;;;;9.20;3.53;;;31.30;49.80;;;;;;6097647;23;20003;-66
2022/08/25 13:26:30;;;;;;;5.60;3.33;;;31.20;50.30;;;;;;6097283;23;20014;-66
2022/08/25 13:29:07;;;;;;;11.23;3.88;;;31.10;50.80;;;;;;6097206;23;20003;-67
2022/08/25 13:31:37;;;;;;;14.48;3.72;;;30.90;51.50;;;;;;6097716;23;20085;-67